Time;durP1;ratioP1;P1;durP2;ratioP2;P2;SDS_P1;SDS_P2;PMS_P1;PMS_P2;Temp;Humidity;BMP_temperature;BMP_pressure;BME280_temperature;BME280_humidity;BME280_pressure;Samples;Min_cycle;Max_cycle;Signal;HPM_P1;HPM_P2
2022/04/18 00:01:14;;;;;;;;;;;2.40;99.90;;;;;;5114068;28;19915;-72
2022/04/18 00:03:40;;;;;;;;;;;2.40;99.90;;;;;;5132581;28;19969;-72
2022/04/18 00:06:05;;;;;;;;;;;2.40;99.90;;;;;;5132734;28;19916;-71
2022/04/18 00:08:31;;;;;;;;;;;2.30;99.90;;;;;;5132252;28;19915;-72
2022/04/18 00:10:56;;;;;;;;;;;2.30;99.90;;;;;;5114013;28;20274;-73
2022/04/18 00:13:22;;;;;;;;;;;2.30;99.90;;;;;;5113609;28;20326;-72
2022/04/18 00:15:47;;;;;;;;;;;2.20;99.90;;;;;;5132614;28;20014;-71
2022/04/18 00:18:13;;;;;;;;;;;2.20;99.90;;;;;;5113611;28;20049;-72
2022/04/18 00:20:38;;;;;;;;;;;2.30;99.90;;;;;;5132654;28;19919;-72
2022/04/18 00:23:04;;;;;;;;;;;2.20;99.90;;;;;;5132143;28;19994;-71
2022/04/18 00:25:29;;;;;;;;;;;2.20;99.90;;;;;;5132473;28;19923;-72
2022/04/18 00:27:55;;;;;;;;;;;2.20;99.90;;;;;;5131949;28;19955;-72
2022/04/18 00:30:20;;;;;;;;;;;2.20;99.90;;;;;;5132231;27;19916;-71
2022/04/18 00:32:46;;;;;;;;;;;2.20;99.90;;;;;;5135268;27;20113;-71
2022/04/18 00:35:11;;;;;;;;;;;2.20;99.90;;;;;;5117810;27;19916;-72
2022/04/18 00:37:39;;;;;;;;;;;2.10;99.90;;;;;;5135990;27;19907;-72
2022/04/18 00:40:06;;;;;;;;;;;2.10;99.90;;;;;;5136362;27;19929;-72
2022/04/18 00:42:32;;;;;;;;;;;2.10;99.90;;;;;;5135985;27;19907;-72
2022/04/18 00:44:58;;;;;;;;;;;2.00;99.90;;;;;;5136131;27;20351;-72
2022/04/18 00:47:23;;;;;;;;;;;2.10;99.90;;;;;;5135784;27;19911;-72
2022/04/18 00:49:48;;;;;;;;;;;2.10;99.90;;;;;;5135812;27;20371;-72
2022/04/18 00:52:14;;;;;;;;;;;2.10;99.90;;;;;;5117107;27;19998;-71
2022/04/18 00:54:41;;;;;;;;;;;2.00;99.90;;;;;;5135918;27;20264;-72
2022/04/18 00:57:07;;;;;;;;;;;2.00;99.90;;;;;;5135635;27;20300;-71
2022/04/18 00:59:33;;;;;;;;;;;1.90;99.90;;;;;;5135433;27;19916;-71
2022/04/18 01:01:59;;;;;;;;;;;1.90;99.90;;;;;;5135486;27;20414;-71
2022/04/18 01:04:24;;;;;;;;;;;1.90;99.90;;;;;;5117003;27;19919;-71
2022/04/18 01:06:50;;;;;;;;;;;2.00;99.90;;;;;;5135742;27;19912;-72
2022/04/18 01:09:15;;;;;;;;;;;2.00;99.90;;;;;;5135420;27;19924;-72
2022/04/18 01:11:41;;;;;;;;;;;1.90;99.90;;;;;;5135475;27;19912;-72
2022/04/18 01:14:06;;;;;;;;;;;2.00;99.90;;;;;;5135072;27;19915;-71
2022/04/18 01:16:32;;;;;;;;;;;2.00;99.90;;;;;;5135167;27;20346;-71
2022/04/18 01:18:57;;;;;;;;;;;2.00;99.90;;;;;;5135030;27;19912;-71
2022/04/18 01:21:23;;;;;;;;;;;2.00;99.90;;;;;;5135272;27;20604;-71
2022/04/18 01:23:49;;;;;;;;;;;2.00;99.90;;;;;;5135338;27;20370;-72
2022/04/18 01:28:58;;;;;;;;;;;1.90;99.90;;;;;;5135023;27;19918;-72
2022/04/18 01:31:33;;;;;;;;;;;1.90;99.90;;;;;;5134990;27;19990;-71
2022/04/18 01:34:00;;;;;;;;;;;1.90;99.90;;;;;;5134780;27;19919;-71
2022/04/18 01:36:26;;;;;;;;;;;1.90;99.90;;;;;;5135136;27;19907;-72
2022/04/18 01:38:51;;;;;;;;;;;1.80;99.90;;;;;;5116220;27;20316;-71
2022/04/18 01:41:17;;;;;;;;;;;1.80;99.90;;;;;;5135227;27;20024;-71
2022/04/18 01:43:43;;;;;;;;;;;1.90;99.90;;;;;;5134514;27;19907;-71
2022/04/18 01:46:08;;;;;;;;;;;1.90;99.90;;;;;;5135245;27;19976;-72
2022/04/18 01:48:34;;;;;;;;;;;1.80;99.90;;;;;;5134798;27;20016;-71
2022/04/18 01:50:59;;;;;;;;;;;1.70;99.90;;;;;;5135121;27;19922;-72
2022/04/18 01:53:26;;;;;;;;;;;1.70;99.90;;;;;;5134524;27;19942;-71
2022/04/18 01:55:51;;;;;;;;;;;1.70;99.90;;;;;;5134380;27;19915;-71
2022/04/18 01:58:17;;;;;;;;;;;1.70;99.90;;;;;;5134462;27;19979;-72
2022/04/18 02:00:42;;;;;;;;;;;1.70;99.90;;;;;;5134938;27;19916;-72
2022/04/18 02:03:08;;;;;;;;;;;1.70;99.90;;;;;;5134433;27;19911;-72
2022/04/18 02:05:33;;;;;;;;;;;1.70;99.90;;;;;;5134615;27;19915;-71
2022/04/18 02:07:59;;;;;;;;;;;1.70;99.90;;;;;;5134266;27;20427;-72
2022/04/18 02:10:24;;;;;;;;;;;1.70;99.90;;;;;;5134376;27;20378;-72
2022/04/18 02:12:50;;;;;;;;;;;1.70;99.90;;;;;;5134335;27;19957;-72
2022/04/18 02:15:15;;;;;;;;;;;1.70;99.90;;;;;;5115735;27;19968;-72
2022/04/18 02:17:41;;;;;;;;;;;1.70;99.90;;;;;;5134002;27;19914;-72
2022/04/18 02:20:07;;;;;;;;;;;1.80;99.90;;;;;;5134277;27;19951;-72
2022/04/18 02:22:33;;;;;;;;;;;1.70;99.90;;;;;;5133971;27;19994;-72
2022/04/18 02:24:58;;;;;;;;;;;1.70;99.90;;;;;;5115260;27;20444;-72
2022/04/18 02:27:24;;;;;;;;;;;1.80;99.90;;;;;;5115298;27;19908;-72
2022/04/18 02:29:50;;;;;;;;;;;1.80;99.90;;;;;;5133929;27;20009;-72
2022/04/18 02:34:59;;;;;;;;;;;1.80;99.90;;;;;;5133919;27;19926;-72
2022/04/18 02:37:24;;;;;;;;;;;1.80;99.90;;;;;;5133756;27;19907;-72
2022/04/18 02:39:50;;;;;;;;;;;1.70;99.90;;;;;;5133624;27;19967;-73
2022/04/18 02:42:18;;;;;;;;;;;1.70;99.90;;;;;;5115190;27;19907;-72
2022/04/18 02:44:45;;;;;;;;;;;1.70;99.90;;;;;;5114946;27;19923;-72
2022/04/18 02:47:11;;;;;;;;;;;1.80;99.90;;;;;;5115095;27;19950;-72
2022/04/18 02:49:37;;;;;;;;;;;1.80;99.90;;;;;;5133478;27;20282;-72
2022/04/18 02:52:03;;;;;;;;;;;1.80;99.90;;;;;;5133432;27;19908;-72
2022/04/18 02:54:28;;;;;;;;;;;1.70;99.90;;;;;;5132458;27;19920;-72
2022/04/18 02:56:54;;;;;;;;;;;1.70;99.90;;;;;;5133529;27;19908;-72
2022/04/18 02:59:19;;;;;;;;;;;1.70;99.90;;;;;;5133746;27;19919;-71
2022/04/18 03:01:45;;;;;;;;;;;1.70;99.90;;;;;;5133738;27;19954;-71
2022/04/18 03:04:11;;;;;;;;;;;1.80;99.90;;;;;;5133547;27;20382;-72
2022/04/18 03:06:36;;;;;;;;;;;1.70;99.90;;;;;;5133551;27;19914;-72
2022/04/18 03:09:02;;;;;;;;;;;1.70;99.90;;;;;;5114597;27;19926;-71
2022/04/18 03:11:27;;;;;;;;;;;1.70;99.90;;;;;;5114674;27;20267;-72
2022/04/18 03:13:55;;;;;;;;;;;1.70;99.90;;;;;;5133129;27;19911;-72
2022/04/18 03:16:21;;;;;;;;;;;1.80;99.90;;;;;;5115107;27;19912;-72
2022/04/18 03:18:46;;;;;;;;;;;1.90;99.90;;;;;;5133205;27;19914;-72
2022/04/18 03:21:13;;;;;;;;;;;1.90;99.90;;;;;;5132883;27;19915;-72
2022/04/18 03:23:38;;;;;;;;;;;1.90;99.90;;;;;;5114709;27;19912;-72
2022/04/18 03:26:04;;;;;;;;;;;1.90;99.90;;;;;;5133364;27;20301;-72
2022/04/18 03:28:32;;;;;;;;;;;1.90;99.90;;;;;;5133168;27;19912;-72
2022/04/18 03:30:57;;;;;;;;;;;1.90;99.90;;;;;;5133178;27;19916;-72
2022/04/18 03:33:23;;;;;;;;;;;1.90;99.90;;;;;;5132590;27;19915;-72
2022/04/18 03:41:17;;;;;;;;;;;1.90;99.90;;;;;;5132715;27;20025;-72
2022/04/18 03:43:42;;;;;;;;;;;1.90;99.90;;;;;;5132553;27;20011;-72
2022/04/18 03:46:08;;;;;;;;;;;1.90;99.90;;;;;;5132806;27;20014;-71
2022/04/18 03:48:33;;;;;;;;;;;1.80;99.90;;;;;;5132471;27;20423;-73
2022/04/18 03:50:59;;;;;;;;;;;1.80;99.90;;;;;;5132230;27;19912;-71
2022/04/18 03:53:25;;;;;;;;;;;1.80;99.90;;;;;;5132135;27;20056;-71
2022/04/18 03:55:50;;;;;;;;;;;1.90;99.90;;;;;;5132603;27;19965;-71
2022/04/18 03:58:16;;;;;;;;;;;1.80;99.90;;;;;;5113950;28;19918;-71
2022/04/18 04:00:42;;;;;;;;;;;1.80;99.90;;;;;;5132617;27;19947;-71
2022/04/18 04:03:08;;;;;;;;;;;1.90;99.90;;;;;;5132225;28;20301;-72
2022/04/18 04:05:34;;;;;;;;;;;1.80;99.90;;;;;;5133319;27;19922;-72
2022/04/18 04:07:59;;;;;;;;;;;1.90;99.90;;;;;;5136575;27;19925;-71
2022/04/18 04:10:25;;;;;;;;;;;1.90;99.90;;;;;;5136480;27;20367;-71
2022/04/18 04:12:50;;;;;;;;;;;1.90;99.90;;;;;;5136502;27;19911;-72
2022/04/18 04:15:16;;;;;;;;;;;1.90;99.90;;;;;;5136569;27;19916;-71
2022/04/18 04:17:41;;;;;;;;;;;1.90;99.90;;;;;;5117989;27;19908;-72
2022/04/18 04:20:07;;;;;;;;;;;2.00;99.90;;;;;;5136598;27;20010;-72
2022/04/18 04:22:33;;;;;;;;;;;2.00;99.90;;;;;;5136616;27;20366;-73
2022/04/18 04:24:58;;;;;;;;;;;2.00;99.90;;;;;;5118303;27;19926;-72
2022/04/18 04:27:24;;;;;;;;;;;2.10;99.90;;;;;;5136414;27;19920;-72
2022/04/18 04:29:49;;;;;;;;;;;2.10;99.90;;;;;;5136388;27;20359;-72
2022/04/18 04:32:15;;;;;;;;;;;2.10;99.90;;;;;;5136055;27;19911;-72
2022/04/18 04:34:41;;;;;;;;;;;2.10;99.90;;;;;;5136175;27;19926;-72
2022/04/18 04:37:06;;;;;;;;;;;2.20;99.90;;;;;;5135911;27;20368;-72
2022/04/18 04:39:32;;;;;;;;;;;2.20;99.90;;;;;;5117507;27;19922;-72
2022/04/18 04:41:58;;;;;;;;;;;2.20;99.90;;;;;;5135823;27;19907;-72
2022/04/18 04:44:23;;;;;;;;;;;2.20;99.90;;;;;;5135873;27;19915;-72
2022/04/18 04:46:48;;;;;;;;;;;2.20;99.90;;;;;;5135750;27;19907;-71
2022/04/18 04:49:14;;;;;;;;;;;2.10;99.90;;;;;;5117575;27;19972;-71
2022/04/18 04:51:40;;;;;;;;;;;2.10;99.90;;;;;;5135630;27;19994;-72
2022/04/18 04:54:05;;;;;;;;;;;2.10;99.90;;;;;;5135901;27;20294;-71
2022/04/18 04:56:30;;;;;;;;;;;2.30;99.90;;;;;;5135732;27;20206;-71
2022/04/18 04:58:56;;;;;;;;;;;2.30;99.90;;;;;;5135577;27;20401;-72
2022/04/18 05:01:22;;;;;;;;;;;2.30;99.90;;;;;;5117119;27;19912;-71
2022/04/18 05:03:48;;;;;;;;;;;2.40;99.90;;;;;;5117027;27;19915;-72
2022/04/18 05:06:14;;;;;;;;;;;2.40;99.90;;;;;;5135819;27;20002;-72
2022/04/18 05:08:40;;;;;;;;;;;2.50;99.90;;;;;;5135403;27;19915;-72
2022/04/18 05:11:05;;;;;;;;;;;2.60;99.90;;;;;;5136001;27;19926;-72
2022/04/18 05:13:31;;;;;;;;;;;2.60;99.90;;;;;;5116824;27;19911;-72
2022/04/18 05:15:57;;;;;;;;;;;2.60;99.90;;;;;;5135479;27;20068;-72
2022/04/18 05:18:23;;;;;;;;;;;2.70;99.90;;;;;;5134610;27;19915;-72
2022/04/18 05:20:48;;;;;;;;;;;2.80;99.90;;;;;;5135573;27;19916;-73
2022/04/18 05:23:17;;;;;;;;;;;2.80;99.90;;;;;;5135353;27;19907;-72
2022/04/18 05:25:43;;;;;;;;;;;2.80;99.90;;;;;;5135831;27;20298;-72
2022/04/18 05:28:09;;;;;;;;;;;2.80;99.90;;;;;;5135441;27;19911;-72
2022/04/18 05:30:36;;;;;;;;;;;2.90;99.90;;;;;;5135663;27;19916;-73
2022/04/18 05:33:02;;;;;;;;;;;2.90;99.90;;;;;;5116691;27;19918;-72
2022/04/18 05:35:27;;;;;;;;;;;2.90;99.90;;;;;;5135447;27;20350;-72
2022/04/18 05:37:53;;;;;;;;;;;2.90;99.90;;;;;;5135411;27;19953;-72
2022/04/18 05:40:18;;;;;;;;;;;3.00;99.90;;;;;;5135278;27;19965;-72
2022/04/18 05:42:44;;;;;;;;;;;2.90;99.90;;;;;;5134893;27;19929;-72
2022/04/18 05:45:09;;;;;;;;;;;2.90;99.90;;;;;;5134889;27;19923;-72
2022/04/18 05:47:35;;;;;;;;;;;2.90;99.90;;;;;;5134629;27;19914;-71
2022/04/18 05:50:00;;;;;;;;;;;2.70;99.90;;;;;;5134903;27;20367;-72
2022/04/18 05:52:26;;;;;;;;;;;2.60;99.90;;;;;;5134498;27;20354;-72
2022/04/18 05:54:51;;;;;;;;;;;2.50;99.90;;;;;;5116109;27;20010;-72
2022/04/18 05:57:17;;;;;;;;;;;2.40;99.90;;;;;;5134470;27;19918;-72
2022/04/18 05:59:42;;;;;;;;;;;2.40;99.90;;;;;;5134599;27;19916;-72
2022/04/18 06:02:08;;;;;;;;;;;2.40;99.90;;;;;;5134708;27;19908;-72
2022/04/18 06:04:33;;;;;;;;;;;2.40;99.90;;;;;;5134607;27;19922;-72
2022/04/18 06:06:59;;;;;;;;;;;2.40;99.90;;;;;;5134394;27;19922;-72
2022/04/18 06:09:24;;;;;;;;;;;2.40;99.90;;;;;;5134305;27;20378;-72
2022/04/18 06:11:51;;;;;;;;;;;2.40;99.90;;;;;;5134351;27;19968;-72
2022/04/18 06:14:16;;;;;;;;;;;2.50;99.90;;;;;;5134413;27;20251;-71
2022/04/18 06:16:42;;;;;;;;;;;2.50;99.90;;;;;;5134024;27;19960;-72
2022/04/18 06:19:08;;;;;;;;;;;2.50;99.90;;;;;;5115633;27;19994;-72
2022/04/18 06:21:33;;;;;;;;;;;2.90;99.90;;;;;;5133965;27;19908;-72
2022/04/18 06:23:59;;;;;;;;;;;2.60;99.90;;;;;;5133887;27;19907;-71
2022/04/18 06:26:24;;;;;;;;;;;2.70;99.90;;;;;;5133827;27;19907;-71
2022/04/18 06:28:51;;;;;;;;;;;2.70;99.90;;;;;;5132726;27;19911;-74
2022/04/18 06:31:16;;;;;;;;;;;2.70;99.90;;;;;;5115592;27;19918;-70
2022/04/18 06:33:42;;;;;;;;;;;1.80;99.90;;;;;;5133599;27;20371;-72
2022/04/18 06:36:07;;;;;;;;;;;2.80;99.90;;;;;;5134135;27;19916;-71
2022/04/18 06:38:33;;;;;;;;;;;2.80;99.90;;;;;;5133644;27;19912;-71
2022/04/18 06:40:58;;;;;;;;;;;2.80;99.90;;;;;;5133654;27;20373;-71
2022/04/18 06:43:24;;;;;;;;;;;2.80;99.90;;;;;;5133530;27;19935;-74
2022/04/18 06:45:50;;;;;;;;;;;2.70;99.90;;;;;;5133884;27;19912;-71
2022/04/18 06:48:15;;;;;;;;;;;2.60;99.90;;;;;;5133283;27;19925;-72
2022/04/18 06:50:41;;;;;;;;;;;2.60;99.90;;;;;;5133723;27;20027;-73
2022/04/18 06:53:07;;;;;;;;;;;2.60;99.90;;;;;;5133244;27;20033;-71
2022/04/18 06:58:16;;;;;;;;;;;2.80;99.90;;;;;;5133755;27;20358;-73
2022/04/18 07:00:42;;;;;;;;;;;2.90;99.90;;;;;;5133935;27;19911;-72
2022/04/18 07:03:07;;;;;;;;;;;3.00;99.90;;;;;;5133118;27;19915;-72
2022/04/18 07:05:33;;;;;;;;;;;3.10;99.90;;;;;;5133662;27;20313;-72
2022/04/18 07:07:58;;;;;;;;;;;3.30;99.90;;;;;;5133245;27;19911;-73
2022/04/18 07:10:24;;;;;;;;;;;3.40;99.90;;;;;;5133083;27;19928;-73
2022/04/18 07:12:49;;;;;;;;;;;3.60;99.90;;;;;;5114636;27;20356;-73
2022/04/18 07:15:15;;;;;;;;;;;3.80;99.90;;;;;;5133230;27;19916;-71
2022/04/18 07:17:40;;;;;;;;;;;4.00;99.90;;;;;;5132999;27;19914;-71
2022/04/18 07:20:06;;;;;;;;;;;4.20;99.90;;;;;;5133135;27;19915;-71
2022/04/18 07:22:31;;;;;;;;;;;4.40;99.90;;;;;;5132898;27;20003;-71
2022/04/18 07:24:57;;;;;;;;;;;4.50;99.90;;;;;;5133125;27;19942;-71
2022/04/18 07:27:23;;;;;;;;;;;4.60;99.90;;;;;;5132891;27;19952;-72
2022/04/18 07:29:48;;;;;;;;;;;4.80;99.90;;;;;;5132875;27;20006;-72
2022/04/18 07:32:14;;;;;;;;;;;4.80;99.90;;;;;;5132686;27;20278;-72
2022/04/18 07:34:39;;;;;;;;;;;4.80;99.90;;;;;;5132682;27;19926;-72
2022/04/18 07:37:05;;;;;;;;;;;4.80;99.90;;;;;;5132556;27;19907;-72
2022/04/18 07:39:31;;;;;;;;;;;4.80;99.90;;;;;;5132707;27;20282;-73
2022/04/18 07:41:56;;;;;;;;;;;4.80;99.90;;;;;;5113862;27;19957;-73
2022/04/18 07:44:22;;;;;;;;;;;4.60;99.90;;;;;;5132605;27;19981;-73
2022/04/18 07:46:48;;;;;;;;;;;4.60;99.90;;;;;;5113898;27;19911;-72
2022/04/18 07:49:13;;;;;;;;;;;4.50;99.90;;;;;;5132748;27;20324;-73
2022/04/18 07:51:40;;;;;;;;;;;4.40;99.90;;;;;;5132715;27;19998;-71
2022/04/18 07:54:07;;;;;;;;;;;4.40;99.90;;;;;;5132392;27;19915;-71
2022/04/18 07:56:33;;;;;;;;;;;4.30;99.90;;;;;;5132349;27;19954;-72
2022/04/18 07:58:59;;;;;;;;;;;4.20;99.90;;;;;;5132756;27;19915;-72
2022/04/18 08:01:25;;;;;;;;;;;4.30;99.90;;;;;;5113866;27;19907;-73
2022/04/18 08:03:50;;;;;;;;;;;4.30;99.90;;;;;;5132107;28;19907;-73
2022/04/18 08:06:16;;;;;;;;;;;4.30;99.90;;;;;;5132404;28;20011;-73
2022/04/18 08:08:42;;;;;;;;;;;4.40;99.90;;;;;;5132126;28;19920;-73
2022/04/18 08:11:11;;;;;;;;;;;4.50;99.90;;;;;;5132694;28;19989;-73
2022/04/18 08:13:40;;;;;;;;;;;4.50;99.90;;;;;;5113617;28;19957;-73
2022/04/18 08:16:06;;;;;;;;;;;4.50;99.90;;;;;;5113957;28;19919;-73
2022/04/18 08:18:36;;;;;;;;;;;4.40;99.90;;;;;;5132184;28;19908;-73
2022/04/18 08:21:01;;;;;;;;;;;4.40;99.90;;;;;;5132560;28;20236;-73
2022/04/18 08:23:27;;;;;;;;;;;4.40;99.90;;;;;;5132130;28;19911;-72
2022/04/18 08:25:52;;;;;;;;;;;4.40;99.90;;;;;;5132555;28;19915;-73
2022/04/18 08:28:18;;;;;;;;;;;4.40;99.90;;;;;;5132006;28;19916;-74
2022/04/18 08:30:43;;;;;;;;;;;4.40;99.90;;;;;;5132612;28;20381;-73
2022/04/18 08:33:09;;;;;;;;;;;4.40;99.90;;;;;;5131964;28;19911;-73
2022/04/18 08:35:34;;;;;;;;;;;4.50;99.90;;;;;;5132006;28;19932;-73
2022/04/18 08:38:00;;;;;;;;;;;4.50;99.90;;;;;;5132051;28;19908;-73
2022/04/18 08:40:26;;;;;;;;;;;4.60;99.90;;;;;;5132294;28;19959;-73
2022/04/18 08:42:54;;;;;;;;;;;4.60;99.90;;;;;;5113606;28;19943;-73
2022/04/18 08:45:23;;;;;;;;;;;4.70;99.90;;;;;;5113531;28;20384;-73
2022/04/18 08:53:19;;;;;;;;;;;4.70;99.90;;;;;;5134421;27;20441;-71
2022/04/18 08:55:45;;;;;;;;;;;4.80;99.90;;;;;;5136194;27;20010;-72
2022/04/18 08:58:12;;;;;;;;;;;4.90;99.90;;;;;;5135808;27;20002;-72
2022/04/18 09:00:38;;;;;;;;;;;4.90;99.90;;;;;;5136043;27;19916;-72
2022/04/18 09:03:03;;;;;;;;;;;4.80;99.90;;;;;;5135791;27;20032;-72
2022/04/18 09:05:34;;;;;;;;;;;4.80;99.90;;;;;;5135750;27;19964;-71
2022/04/18 09:08:00;;;;;;;;;;;4.80;99.90;;;;;;5135438;27;20002;-72
2022/04/18 09:10:26;;;;;;;;;;;4.80;99.90;;;;;;5135531;27;20385;-72
2022/04/18 09:12:52;;;;;;;;;;;4.90;99.90;;;;;;5116760;27;19977;-72
2022/04/18 09:15:37;;;;;;;;;;;4.80;99.90;;;;;;5135547;27;20056;-72
2022/04/18 09:18:07;;;;;;;;;;;4.90;99.90;;;;;;5116139;27;19908;-72
2022/04/18 09:20:39;;;;;;;;;;;5.10;99.90;;;;;;5135386;27;19916;-72
2022/04/18 09:23:05;;;;;;;;;;;5.20;99.90;;;;;;5135278;27;19918;-72
2022/04/18 09:25:36;;;;;;;;;;;5.40;99.90;;;;;;5116800;27;19920;-73
2022/04/18 09:28:02;;;;;;;;;;;5.40;99.90;;;;;;5135089;27;19914;-76
2022/04/18 09:30:30;;;;;;;;;;;5.30;99.90;;;;;;5134793;27;20438;-72
2022/04/18 09:32:56;;;;;;;;;;;5.20;99.90;;;;;;5134951;27;20385;-73
2022/04/18 09:35:26;;;;;;;;;;;5.20;99.90;;;;;;5135127;27;19916;-73
2022/04/18 09:37:52;;;;;;;;;;;5.10;99.90;;;;;;5135079;27;20326;-73
2022/04/18 09:40:21;;;;;;;;;;;5.10;99.90;;;;;;5116586;27;20322;-72
2022/04/18 09:42:46;;;;;;;;;;;5.00;99.90;;;;;;5135103;27;19914;-73
2022/04/18 09:45:12;;;;;;;;;;;4.90;99.90;;;;;;5116565;27;20338;-74
2022/04/18 09:47:37;;;;;;;;;;;4.90;99.90;;;;;;5134663;27;19960;-72
2022/04/18 09:50:58;;;;;;;;;;;4.90;99.90;;;;;;5116246;27;19955;-72
2022/04/18 09:53:04;;;;;;;;;;;4.90;99.90;;;;;;5134464;27;19951;-72
2022/04/18 09:55:30;;;;;;;;;;;4.90;99.90;;;;;;5134663;27;19958;-72
2022/04/18 09:58:02;;;;;;;;;;;4.80;99.90;;;;;;5134528;27;19907;-72
2022/04/18 10:00:28;;;;;;;;;;;4.90;99.90;;;;;;5134412;27;20010;-73
2022/04/18 10:02:54;;;;;;;;;;;5.80;99.90;;;;;;5134157;27;20014;-72
2022/04/18 10:05:20;;;;;;;;;;;5.00;99.90;;;;;;5115960;27;20304;-73
2022/04/18 10:07:47;;;;;;;;;;;5.10;99.90;;;;;;5134230;27;20373;-72
2022/04/18 10:10:13;;;;;;;;;;;5.20;99.90;;;;;;5134414;27;20034;-72
2022/04/18 10:12:38;;;;;;;;;;;5.20;99.90;;;;;;5134216;27;20437;-71
2022/04/18 10:15:04;;;;;;;;;;;5.20;99.90;;;;;;5134437;27;20355;-72
2022/04/18 10:17:30;;;;;;;;;;;5.20;99.90;;;;;;5134457;27;19913;-73
2022/04/18 10:20:05;;;;;;;;;;;5.10;99.90;;;;;;5134229;27;19919;-73
2022/04/18 10:23:03;;;;;;;;;;;5.10;99.90;;;;;;5133995;27;20010;-73
2022/04/18 10:25:46;;;;;;;;;;;5.10;99.90;;;;;;5077497;27;20014;-73
2022/04/18 10:28:16;;;;;;;;;;;5.10;99.90;;;;;;5133868;27;19998;-73
2022/04/18 10:30:45;;;;;;;;;;;5.00;99.90;;;;;;5115191;27;19922;-73
2022/04/18 10:33:12;;;;;;;;;;;5.00;99.90;;;;;;5133720;27;19922;-73
2022/04/18 10:35:50;;;;;;;;;;;5.00;99.90;;;;;;5134054;27;19963;-73
2022/04/18 10:38:16;;;;;;;;;;;5.10;99.90;;;;;;5115110;27;20354;-73
2022/04/18 10:40:41;;;;;;;;;;;5.30;99.90;;;;;;5134061;27;19915;-73
2022/04/18 10:43:08;;;;;;;;;;;5.30;99.90;;;;;;5115088;27;19907;-73
2022/04/18 10:45:34;;;;;;;;;;;5.40;99.90;;;;;;5133895;27;20088;-73
2022/04/18 10:48:00;;;;;;;;;;;5.60;99.90;;;;;;5115024;27;19980;-73
2022/04/18 10:50:27;;;;;;;;;;;5.70;99.90;;;;;;5133771;27;19927;-74
2022/04/18 10:53:11;;;;;;;;;;;5.80;99.90;;;;;;5133329;27;20387;-73
2022/04/18 10:55:37;;;;;;;;;;;5.80;99.90;;;;;;5133384;27;20006;-73
2022/04/18 10:58:09;;;;;;;;;;;5.80;99.90;;;;;;5133267;27;20332;-73
2022/04/18 11:00:45;;;;;;;;;;;5.90;99.90;;;;;;5133828;27;20278;-74
2022/04/18 11:03:10;;;;;;;;;;;6.00;99.90;;;;;;5133128;27;20405;-73
2022/04/18 11:05:37;;;;;;;;;;;6.00;99.90;;;;;;5133362;27;19968;-72
2022/04/18 11:08:13;;;;;;;;;;;5.90;99.90;;;;;;5133477;27;20351;-72
2022/04/18 11:10:38;;;;;;;;;;;6.00;99.90;;;;;;5133415;27;19934;-72
2022/04/18 11:13:06;;;;;;;;;;;6.00;99.90;;;;;;5114488;27;20286;-73
2022/04/18 11:15:32;;;;;;;;;;;6.00;99.90;;;;;;5132795;27;19915;-72
2022/04/18 11:18:00;;;;;;;;;;;6.10;99.90;;;;;;5132952;27;20568;-73
2022/04/18 11:20:27;;;;;;;;;;;6.10;99.90;;;;;;5133200;27;20127;-73
2022/04/18 11:23:11;;;;;;;;;;;6.20;99.90;;;;;;5132838;27;19998;-73
2022/04/18 11:25:50;;;;;;;;;;;6.30;99.90;;;;;;5114240;27;19920;-72
2022/04/18 11:28:16;;;;;;;;;;;6.40;99.90;;;;;;5132699;27;19915;-73
2022/04/18 11:30:41;;;;;;;;;;;6.60;99.90;;;;;;5133013;27;19915;-72
2022/04/18 11:33:07;;;;;;;;;;;6.70;99.90;;;;;;5133068;27;20138;-72
2022/04/18 11:35:33;;;;;;;;;;;6.70;99.90;;;;;;5132909;27;20024;-72
2022/04/18 11:38:06;;;;;;;;;;;6.80;99.90;;;;;;5132505;27;19911;-73
2022/04/18 11:40:35;;;;;;;;;;;6.90;99.90;;;;;;5132846;27;19922;-73
2022/04/18 11:43:00;;;;;;;;;;;7.00;99.90;;;;;;5132424;27;19914;-72
2022/04/18 11:45:26;;;;;;;;;;;7.20;99.90;;;;;;5114128;27;19915;-71
2022/04/18 11:47:52;;;;;;;;;;;7.20;99.90;;;;;;5132694;27;20301;-72
2022/04/18 11:50:21;;;;;;;;;;;7.20;99.90;;;;;;5132755;27;19919;-72
2022/04/18 11:52:48;;;;;;;;;;;7.10;99.90;;;;;;5132396;27;19907;-74
2022/04/18 11:55:15;;;;;;;;;;;7.20;99.90;;;;;;5132372;27;20291;-72
2022/04/18 11:57:41;;;;;;;;;;;7.20;99.90;;;;;;5132274;27;19911;-72
2022/04/18 12:00:09;;;;;;;;;;;7.20;99.90;;;;;;5132665;27;19919;-72
2022/04/18 12:08:04;;;;;;;;;;;7.70;99.90;;;;;;5132436;28;19960;-73
2022/04/18 12:10:31;;;;;;;;;;;7.80;99.90;;;;;;5132462;28;20040;-74
2022/04/18 12:12:57;;;;;;;;;;;7.90;99.90;;;;;;5132123;28;19907;-74
2022/04/18 12:15:24;;;;;;;;;;;8.00;99.90;;;;;;5132383;28;19965;-71
2022/04/18 12:17:50;;;;;;;;;;;8.10;99.90;;;;;;5132209;28;20331;-72
2022/04/18 12:20:19;;;;;;;;;;;8.10;99.90;;;;;;5132077;28;20332;-72
2022/04/18 12:22:48;;;;;;;;;;;8.00;99.90;;;;;;5132000;28;19930;-72
2022/04/18 12:25:20;;;;;;;;;;;8.00;99.90;;;;;;5113543;28;19915;-74
2022/04/18 12:27:46;;;;;;;;;;;8.10;99.90;;;;;;5133607;27;19944;-74
2022/04/18 12:30:12;;;;;;;;;;;8.20;99.90;;;;;;5117700;27;20046;-73
2022/04/18 12:32:38;;;;;;;;;;;8.20;99.90;;;;;;5136235;27;19907;-73
2022/04/18 12:35:04;;;;;;;;;;;8.00;99.90;;;;;;5136253;27;19933;-73
2022/04/18 12:37:30;;;;;;;;;;;7.90;99.90;;;;;;5136171;27;20023;-73
2022/04/18 12:40:15;;;;;;;;;;;7.90;99.90;;;;;;5117373;27;20015;-74
2022/04/18 12:42:48;;;;;;;;;;;7.80;99.90;;;;;;5136091;27;20228;-74
2022/04/18 12:45:13;;;;;;;;;;;7.80;99.90;;;;;;5136142;27;19915;-74
2022/04/18 12:47:40;;;;;;;;;;;7.70;99.90;;;;;;5135722;27;19957;-73
2022/04/18 12:50:07;;;;;;;;;;;7.60;99.90;;;;;;5135583;27;19915;-73
2022/04/18 12:52:33;;;;;;;;;;;7.50;99.90;;;;;;5135790;27;19959;-74
2022/04/18 12:55:03;;;;;;;;;;;7.50;99.90;;;;;;5135878;27;19970;-73
2022/04/18 12:57:30;;;;;;;;;;;7.40;99.90;;;;;;5135700;27;19914;-73
2022/04/18 13:00:07;;;;;;;;;;;7.40;99.90;;;;;;5135687;27;19916;-73
2022/04/18 13:02:32;;;;;;;;;;;7.30;99.90;;;;;;5135429;27;20426;-72
2022/04/18 13:04:58;;;;;;;;;;;7.20;99.90;;;;;;5135345;27;19919;-73
2022/04/18 13:07:24;;;;;;;;;;;7.10;99.90;;;;;;5135572;27;20355;-73
2022/04/18 13:10:00;;;;;;;;;;;7.10;99.90;;;;;;5116763;27;19938;-72
2022/04/18 13:12:30;;;;;;;;;;;7.00;99.90;;;;;;5135370;27;20351;-72
2022/04/18 13:15:02;;;;;;;;;;;7.00;99.90;;;;;;5135317;27;19980;-73
2022/04/18 13:17:28;;;;;;;;;;;7.00;99.90;;;;;;5135296;27;19914;-73
2022/04/18 13:19:53;;;;;;;;;;;7.10;99.90;;;;;;5116835;27;20279;-73
2022/04/18 13:22:19;;;;;;;;;;;6.60;99.90;;;;;;5135420;27;19961;-73
2022/04/18 13:24:45;;;;;;;;;;;7.20;99.90;;;;;;5116642;27;19915;-73
2022/04/18 13:27:24;;;;;;;;;;;7.20;99.90;;;;;;5116747;27;19918;-73
2022/04/18 13:29:49;;;;;;;;;;;7.20;99.90;;;;;;5116706;27;19919;-74
2022/04/18 13:32:15;;;;;;;;;;;7.20;99.90;;;;;;5135091;27;20373;-73
2022/04/18 13:34:40;;;;;;;;;;;7.20;99.90;;;;;;5116742;27;20678;-73
2022/04/18 13:37:06;;;;;;;;;;;7.20;99.90;;;;;;5135085;27;19935;-73
2022/04/18 13:39:32;;;;;;;;;;;7.20;99.90;;;;;;5134657;27;19916;-73
2022/04/18 13:41:57;;;;;;;;;;;7.20;99.90;;;;;;5134679;27;19907;-73
2022/04/18 13:44:22;;;;;;;;;;;7.20;99.90;;;;;;5135084;27;19965;-73
2022/04/18 13:46:48;;;;;;;;;;;7.20;99.90;;;;;;5134707;27;19911;-73
2022/04/18 13:49:13;;;;;;;;;;;7.20;99.90;;;;;;5134785;27;20397;-73
2022/04/18 13:51:39;;;;;;;;;;;7.30;99.90;;;;;;5134771;27;20044;-73
2022/04/18 13:54:05;;;;;;;;;;;7.30;99.90;;;;;;5116051;27;19912;-73
2022/04/18 13:56:30;;;;;;;;;;;7.30;99.90;;;;;;5116020;27;19915;-73
2022/04/18 13:58:57;;;;;;;;;;;7.30;99.90;;;;;;5134393;27;20309;-73
2022/04/18 14:01:23;;;;;;;;;;;7.30;99.90;;;;;;5134325;27;19907;-73
2022/04/18 14:03:49;;;;;;;;;;;7.30;99.90;;;;;;5134315;27;19912;-73
2022/04/18 14:06:15;;;;;;;;;;;7.40;99.90;;;;;;5134721;27;19920;-73
2022/04/18 14:08:41;;;;;;;;;;;7.40;99.90;;;;;;5115977;27;19984;-73
2022/04/18 14:11:08;;;;;;;;;;;7.40;99.90;;;;;;5134612;27;19916;-72
2022/04/18 14:13:35;;;;;;;;;;;7.40;99.90;;;;;;5134180;27;20366;-72
2022/04/18 14:21:29;;;;;;;;;;;7.10;99.90;;;;;;5134248;27;20011;-73
2022/04/18 14:23:54;;;;;;;;;;;7.00;99.90;;;;;;5134014;27;19946;-73
2022/04/18 14:26:20;;;;;;;;;;;7.00;99.90;;;;;;5133798;27;19907;-73
2022/04/18 14:28:46;;;;;;;;;;;7.00;99.90;;;;;;5133987;27;20327;-73
2022/04/18 14:31:11;;;;;;;;;;;6.90;99.90;;;;;;5133693;27;19915;-73
2022/04/18 14:33:37;;;;;;;;;;;6.90;99.90;;;;;;5133709;27;20247;-73
2022/04/18 14:36:06;;;;;;;;;;;6.90;99.90;;;;;;5134093;27;19923;-74
2022/04/18 14:38:32;;;;;;;;;;;6.90;99.90;;;;;;5133687;27;19907;-72
2022/04/18 14:40:57;;;;;;;;;;;6.90;99.90;;;;;;5134052;27;19942;-72
2022/04/18 14:43:23;;;;;;;;;;;7.00;99.90;;;;;;5133691;27;19908;-72
2022/04/18 14:45:49;;;;;;;;;;;6.90;99.90;;;;;;5133226;27;19919;-72
2022/04/18 14:48:15;;;;;;;;;;;6.90;99.90;;;;;;5133569;27;19907;-72
2022/04/18 14:50:40;;;;;;;;;;;6.90;99.90;;;;;;5132925;27;20317;-73
2022/04/18 14:53:09;;;;;;;;;;;6.70;99.90;;;;;;5133361;27;19918;-73
2022/04/18 14:55:35;;;;;;;;;;;6.70;99.90;;;;;;5133714;27;19915;-74
2022/04/18 14:58:04;;;;;;;;;;;6.70;99.90;;;;;;5133456;27;19954;-74